Time;durP1;ratioP1;P1;durP2;ratioP2;P2;SDS_P1;SDS_P2;PMS_P1;PMS_P2;Temp;Humidity;BMP_temperature;BMP_pressure;BME280_temperature;BME280_humidity;BME280_pressure;Samples;Min_cycle;Max_cycle;Signal;HPM_P1;HPM_P2
2023/04/02 00:00:35;;;;;;;1.38;0.70;;;7.30;99.90;;;;;;5026338;28;20061;-43
2023/04/02 00:03:07;;;;;;;0.80;0.80;;;7.20;99.90;;;;;;5025676;28;20046;-40
2023/04/02 00:05:49;;;;;;;1.33;1.10;;;7.20;99.90;;;;;;5018909;28;20053;-51
2023/04/02 00:08:27;;;;;;;1.17;1.00;;;7.20;99.90;;;;;;5017779;28;20052;-41
2023/04/02 00:10:58;;;;;;;4.78;0.95;;;7.20;99.90;;;;;;5026151;28;20338;-40
2023/04/02 00:13:28;;;;;;;0.82;0.82;;;7.20;99.90;;;;;;5025652;28;20053;-40
2023/04/02 00:15:57;;;;;;;3.35;0.80;;;7.10;99.90;;;;;;5025462;28;20057;-41
2023/04/02 00:18:26;;;;;;;1.85;0.70;;;7.20;99.90;;;;;;5027397;28;20053;-42
2023/04/02 00:21:18;;;;;;;0.80;0.80;;;7.10;99.90;;;;;;5024047;28;20065;-41
2023/04/02 00:23:45;;;;;;;0.98;0.90;;;7.10;99.90;;;;;;5024630;28;20053;-40
2023/04/02 00:26:22;;;;;;;0.73;0.70;;;7.10;99.90;;;;;;5025798;28;20069;-43
2023/04/02 00:28:51;;;;;;;0.70;0.70;;;7.10;99.90;;;;;;5024834;28;20057;-42
2023/04/02 00:31:20;;;;;;;0.60;0.60;;;7.20;99.90;;;;;;5025094;28;20041;-41
2023/04/02 00:33:48;;;;;;;1.88;0.80;;;7.10;99.90;;;;;;5024245;28;20453;-41
2023/04/02 00:36:19;;;;;;;1.05;1.05;;;7.10;99.90;;;;;;5025688;28;20490;-42
2023/04/02 00:38:47;;;;;;;0.70;0.70;;;7.10;99.90;;;;;;5025231;28;20053;-41
2023/04/02 00:41:29;;;;;;;0.70;0.70;;;7.10;99.90;;;;;;5025654;28;20060;-41
2023/04/02 00:43:58;;;;;;;1.08;1.00;;;7.10;99.90;;;;;;5019013;28;20068;-42
2023/04/02 00:46:49;;;;;;;1.15;1.10;;;7.10;99.90;;;;;;5025719;28;20101;-41
2023/04/02 00:49:31;;;;;;;1.00;1.00;;;7.00;99.90;;;;;;5023558;28;20053;-44
2023/04/02 00:52:06;;;;;;;1.25;0.80;;;7.00;99.90;;;;;;5024693;28;20287;-45
2023/04/02 00:54:44;;;;;;;0.60;0.60;;;7.00;99.90;;;;;;5024476;28;20064;-40
2023/04/02 00:57:20;;;;;;;0.70;0.70;;;7.00;99.90;;;;;;5025590;28;20072;-40
2023/04/02 01:00:13;;;;;;;1.13;0.90;;;7.00;99.90;;;;;;5025019;28;20227;-42
2023/04/02 01:02:41;;;;;;;0.70;0.70;;;7.10;99.90;;;;;;5024272;28;20049;-42
2023/04/02 01:05:14;;;;;;;1.58;0.93;;;7.10;99.90;;;;;;5023372;28;20057;-41
2023/04/02 01:08:14;;;;;;;0.70;0.70;;;7.10;99.90;;;;;;5022955;28;20050;-41
2023/04/02 01:10:52;;;;;;;0.70;0.70;;;7.00;99.90;;;;;;5025062;28;20056;-40
2023/04/02 01:13:42;;;;;;;0.80;0.80;;;6.90;99.90;;;;;;5025936;28;20056;-41
2023/04/02 01:16:21;;;;;;;0.73;0.73;;;6.80;99.90;;;;;;5005416;28;20274;-42
2023/04/02 01:19:13;;;;;;;0.93;0.93;;;6.90;99.90;;;;;;5022283;28;20041;-42
2023/04/02 01:22:03;;;;;;;0.70;0.70;;;6.90;99.90;;;;;;5025120;28;20076;-41
2023/04/02 01:24:33;;;;;;;1.00;0.90;;;6.90;99.90;;;;;;5019863;28;20521;-44
2023/04/02 01:27:07;;;;;;;0.80;0.80;;;6.90;99.90;;;;;;5024461;28;20278;-43
2023/04/02 01:29:44;;;;;;;0.90;0.90;;;6.80;99.90;;;;;;5024185;28;20056;-42
2023/04/02 01:32:14;;;;;;;1.02;0.98;;;6.90;99.90;;;;;;5025989;28;20510;-40
2023/04/02 01:34:45;;;;;;;0.90;0.90;;;6.90;99.90;;;;;;5020730;28;20037;-41
2023/04/02 01:37:31;;;;;;;0.82;0.65;;;6.90;99.90;;;;;;5008930;28;20565;-43
2023/04/02 01:40:29;;;;;;;0.93;0.93;;;6.90;99.90;;;;;;5024281;28;20045;-43
2023/04/02 01:43:31;;;;;;;0.82;0.82;;;6.80;99.90;;;;;;5022940;28;20061;-43
2023/04/02 01:46:05;;;;;;;0.80;0.80;;;6.80;99.90;;;;;;5019392;28;20588;-42
2023/04/02 01:48:33;;;;;;;1.38;0.90;;;6.90;99.90;;;;;;5024325;28;20057;-40
2023/04/02 01:51:06;;;;;;;0.85;0.85;;;6.80;99.90;;;;;;5014612;28;20072;-41
2023/04/02 01:53:33;;;;;;;0.82;0.82;;;6.80;99.90;;;;;;5024660;28;20068;-42
2023/04/02 01:56:03;;;;;;;1.60;1.00;;;6.80;99.90;;;;;;5024019;28;20053;-43
2023/04/02 01:58:32;;;;;;;0.70;0.70;;;6.90;99.90;;;;;;5019624;28;20049;-41
2023/04/02 02:01:18;;;;;;;0.93;0.93;;;6.90;99.90;;;;;;5007907;28;20608;-49
2023/04/02 02:03:49;;;;;;;1.13;1.02;;;6.90;99.90;;;;;;5022730;28;20462;-40
2023/04/02 02:06:18;;;;;;;2.08;1.00;;;6.90;99.90;;;;;;5020386;28;20506;-44
2023/04/02 02:08:50;;;;;;;0.70;0.70;;;7.00;99.90;;;;;;5021135;28;20053;-40
2023/04/02 02:11:25;;;;;;;0.75;0.75;;;6.90;99.90;;;;;;5022650;28;20038;-43
2023/04/02 02:13:57;;;;;;;1.60;0.90;;;7.00;99.90;;;;;;5005624;28;20045;-42
2023/04/02 02:16:27;;;;;;;0.88;0.88;;;7.00;99.90;;;;;;5024884;28;20068;-41
2023/04/02 02:18:59;;;;;;;0.70;0.70;;;6.90;99.90;;;;;;5023524;28;20525;-43
2023/04/02 02:21:49;;;;;;;0.88;0.88;;;6.90;99.90;;;;;;5017391;28;20068;-43
2023/04/02 02:24:25;;;;;;;0.85;0.85;;;6.90;99.90;;;;;;4995605;28;20060;-41
2023/04/02 02:27:24;;;;;;;0.60;0.60;;;6.90;99.90;;;;;;5022092;28;20045;-40
2023/04/02 02:30:17;;;;;;;0.93;0.93;;;6.90;99.90;;;;;;5021419;28;20052;-42
2023/04/02 02:32:52;;;;;;;0.70;0.70;;;6.90;99.90;;;;;;5021594;28;20054;-41
2023/04/02 02:35:41;;;;;;;0.80;0.80;;;6.90;99.90;;;;;;5019716;28;20053;-40
2023/04/02 02:38:30;;;;;;;0.77;0.77;;;6.90;99.90;;;;;;5023583;28;20568;-41
2023/04/02 02:41:15;;;;;;;1.10;1.00;;;6.80;99.90;;;;;;5009745;28;20417;-43
2023/04/02 02:44:09;;;;;;;0.75;0.75;;;6.80;99.90;;;;;;5011336;28;20045;-43
2023/04/02 02:46:43;;;;;;;0.82;0.82;;;6.80;99.90;;;;;;5004479;28;20056;-36
2023/04/02 02:49:23;;;;;;;1.85;0.70;;;6.80;99.90;;;;;;5003782;28;20053;-36
2023/04/02 02:52:21;;;;;;;1.95;0.80;;;6.80;99.90;;;;;;5017366;28;20041;-36
2023/04/02 02:55:05;;;;;;;1.10;1.00;;;6.80;99.90;;;;;;5002971;28;20053;-40
2023/04/02 02:57:54;;;;;;;0.82;0.80;;;6.80;99.90;;;;;;5016676;28;20068;-41
2023/04/02 03:00:25;;;;;;;3.33;2.90;;;6.80;99.90;;;;;;5006308;28;20548;-42
2023/04/02 03:02:55;;;;;;;4.40;0.93;;;6.80;99.90;;;;;;5022916;28;20506;-42
2023/04/02 03:05:28;;;;;;;4.78;1.08;;;6.80;99.90;;;;;;5022130;28;20064;-41
2023/04/02 03:08:03;;;;;;;0.80;0.80;;;6.80;99.90;;;;;;5019215;28;20056;-41
2023/04/02 03:10:34;;;;;;;1.17;0.80;;;6.80;99.90;;;;;;5023472;28;20049;-42
2023/04/02 03:13:18;;;;;;;2.72;0.70;;;6.80;99.90;;;;;;5013004;28;20054;-40
2023/04/02 03:15:46;;;;;;;0.90;0.90;;;6.80;99.90;;;;;;5023608;28;20053;-42
2023/04/02 03:18:21;;;;;;;0.80;0.80;;;6.80;99.90;;;;;;5017513;28;20510;-41
2023/04/02 03:20:50;;;;;;;0.85;0.85;;;6.70;99.90;;;;;;5003389;28;20085;-42
2023/04/02 03:23:26;;;;;;;1.97;0.90;;;6.60;99.90;;;;;;5022952;28;20046;-41
2023/04/02 03:26:09;;;;;;;0.60;0.60;;;6.60;99.90;;;;;;5022298;28;20037;-42
2023/04/02 03:28:45;;;;;;;0.80;0.80;;;6.60;99.90;;;;;;5021955;28;20049;-40
2023/04/02 03:31:16;;;;;;;0.60;0.60;;;6.60;99.90;;;;;;5018865;28;20054;-40
2023/04/02 03:33:50;;;;;;;0.85;0.80;;;6.50;99.90;;;;;;5024247;28;20304;-41
2023/04/02 03:36:32;;;;;;;2.90;1.27;;;6.50;99.90;;;;;;5021352;28;20132;-41
2023/04/02 03:39:34;;;;;;;0.60;0.60;;;6.50;99.90;;;;;;5017038;28;20084;-42
2023/04/02 03:42:11;;;;;;;1.98;0.70;;;6.50;99.90;;;;;;5013698;28;20422;-41
2023/04/02 03:44:48;;;;;;;1.25;1.10;;;6.50;99.90;;;;;;5021856;28;20286;-40
2023/04/02 03:47:37;;;;;;;1.02;0.95;;;6.50;99.90;;;;;;5025007;28;20457;-41
2023/04/02 03:50:19;;;;;;;3.40;1.10;;;6.50;99.90;;;;;;5006555;28;20054;-44
2023/04/02 03:52:47;;;;;;;1.23;0.80;;;6.50;99.90;;;;;;5022958;28;20065;-41
2023/04/02 03:55:24;;;;;;;1.08;0.98;;;6.40;99.90;;;;;;5022627;28;20069;-41
2023/04/02 03:58:04;;;;;;;1.60;1.50;;;6.40;99.90;;;;;;5020756;28;20060;-44
2023/04/02 04:00:46;;;;;;;0.90;0.90;;;6.40;99.90;;;;;;5006992;28;20049;-41
2023/04/02 04:03:18;;;;;;;0.80;0.80;;;6.40;99.90;;;;;;5004075;28;20408;-43
2023/04/02 04:05:56;;;;;;;1.13;1.10;;;6.40;99.90;;;;;;5019311;28;20076;-41
2023/04/02 04:08:31;;;;;;;1.23;1.23;;;6.30;99.90;;;;;;5003177;28;20050;-41
2023/04/02 04:11:08;;;;;;;0.77;0.77;;;6.40;99.90;;;;;;5027254;28;20041;-41
2023/04/02 04:13:44;;;;;;;0.80;0.80;;;6.40;99.90;;;;;;5015369;28;20054;-42
2023/04/02 04:16:19;;;;;;;2.45;0.80;;;6.40;99.90;;;;;;5005376;28;20404;-41
2023/04/02 04:19:18;;;;;;;1.00;0.80;;;6.30;99.90;;;;;;5008470;28;20057;-41
2023/04/02 04:21:45;;;;;;;0.85;0.80;;;6.30;99.90;;;;;;5007951;28;20080;-40
2023/04/02 04:24:24;;;;;;;1.27;0.70;;;6.30;99.90;;;;;;5010247;28;20399;-44
2023/04/02 04:27:08;;;;;;;1.15;1.15;;;6.30;99.90;;;;;;5011092;28;20054;-40
2023/04/02 04:30:02;;;;;;;3.30;1.05;;;6.30;99.90;;;;;;5025649;28;20501;-43
2023/04/02 04:32:41;;;;;;;2.38;2.17;;;6.30;99.90;;;;;;5027521;28;20068;-43
2023/04/02 04:35:32;;;;;;;0.70;0.70;;;6.40;99.90;;;;;;5007362;28;20046;-40
2023/04/02 04:38:06;;;;;;;0.82;0.82;;;6.30;99.90;;;;;;5021652;28;20045;-40
2023/04/02 04:40:51;;;;;;;1.17;1.08;;;6.30;99.90;;;;;;5008112;28;20053;-41
2023/04/02 04:43:29;;;;;;;0.70;0.70;;;6.30;99.90;;;;;;5027369;28;20053;-41
2023/04/02 04:46:07;;;;;;;1.67;1.13;;;6.20;99.90;;;;;;5021034;28;20480;-42
2023/04/02 04:48:40;;;;;;;0.95;0.85;;;6.20;99.90;;;;;;5020971;28;20053;-41
2023/04/02 04:51:18;;;;;;;2.85;0.80;;;6.20;99.90;;;;;;5023418;28;20050;-41
2023/04/02 04:53:48;;;;;;;0.82;0.75;;;6.30;99.90;;;;;;5020501;28;20053;-41
2023/04/02 04:56:22;;;;;;;1.05;0.82;;;6.20;99.90;;;;;;5009498;28;20050;-42
2023/04/02 04:59:04;;;;;;;1.13;0.98;;;6.20;99.90;;;;;;5025009;28;20061;-42
2023/04/02 05:01:40;;;;;;;1.33;1.27;;;6.30;99.90;;;;;;5015577;28;20057;-41
2023/04/02 05:04:18;;;;;;;0.85;0.85;;;6.30;99.90;;;;;;4995825;28;20057;-42
2023/04/02 05:07:10;;;;;;;1.60;0.98;;;6.30;99.90;;;;;;5023902;28;20286;-41
2023/04/02 05:10:16;;;;;;;0.60;0.60;;;6.40;99.90;;;;;;5005134;28;20057;-42
2023/04/02 05:13:04;;;;;;;2.30;1.10;;;6.40;99.90;;;;;;5011994;28;20061;-40
2023/04/02 05:15:40;;;;;;;0.80;0.80;;;6.40;99.90;;;;;;5020846;28;20057;-41
2023/04/02 05:18:31;;;;;;;0.80;0.80;;;6.40;99.90;;;;;;5023379;28;20053;-40
2023/04/02 05:21:18;;;;;;;1.20;1.10;;;6.40;99.90;;;;;;5023164;28;20053;-42
2023/04/02 05:23:55;;;;;;;0.80;0.80;;;6.40;99.90;;;;;;5022679;28;20524;-41
2023/04/02 05:26:32;;;;;;;0.80;0.80;;;6.30;99.90;;;;;;5021038;28;20056;-44
2023/04/02 05:29:16;;;;;;;0.80;0.80;;;6.40;99.90;;;;;;5020345;28;20581;-43
2023/04/02 05:31:55;;;;;;;2.15;0.95;;;6.40;99.90;;;;;;5008115;28;20057;-40
2023/04/02 05:34:28;;;;;;;2.95;1.17;;;6.40;99.90;;;;;;5023424;28;20045;-40
2023/04/02 05:36:57;;;;;;;0.82;0.82;;;6.40;99.90;;;;;;5005629;28;20525;-43
2023/04/02 05:39:26;;;;;;;0.90;0.90;;;6.50;99.90;;;;;;5026009;28;20053;-41
2023/04/02 05:42:05;;;;;;;1.05;0.77;;;6.50;99.90;;;;;;5013784;28;20050;-45
2023/04/02 05:45:16;;;;;;;0.60;0.60;;;6.40;99.90;;;;;;5023332;28;20053;-41
2023/04/02 05:47:47;;;;;;;0.80;0.80;;;6.50;99.90;;;;;;5008246;28;20536;-41
2023/04/02 05:50:26;;;;;;;0.95;0.95;;;6.50;99.90;;;;;;5020503;28;20041;-41
2023/04/02 05:53:06;;;;;;;1.15;0.93;;;6.50;99.90;;;;;;5024733;28;20053;-42
2023/04/02 05:55:52;;;;;;;0.90;0.90;;;6.40;99.90;;;;;;5006764;28;20060;-40
2023/04/02 05:58:52;;;;;;;0.95;0.95;;;6.50;99.90;;;;;;5011547;28;20061;-43
2023/04/02 06:02:15;;;;;;;2.80;1.15;;;6.50;99.90;;;;;;4998489;28;20054;-41
2023/04/02 06:04:55;;;;;;;0.75;0.75;;;6.50;99.90;;;;;;4956316;28;20047;-40
2023/04/02 06:07:46;;;;;;;0.88;0.80;;;6.50;99.90;;;;;;5017949;28;20076;-41
2023/04/02 06:10:31;;;;;;;0.90;0.90;;;6.60;99.90;;;;;;5023905;28;20057;-40
2023/04/02 06:13:07;;;;;;;0.70;0.70;;;6.50;99.90;;;;;;5022652;28;20057;-41
2023/04/02 06:15:40;;;;;;;;;;;6.50;99.90;;;;;;5023986;28;20064;-40
2023/04/02 06:18:21;;;;;;;0.82;0.82;;;6.60;99.90;;;;;;5022211;28;19932;-44
2023/04/02 06:20:51;;;;;;;1.23;1.15;;;6.60;99.90;;;;;;5019234;28;20060;-42
2023/04/02 06:23:42;;;;;;;1.02;1.02;;;6.60;99.90;;;;;;5017600;28;20053;-41
2023/04/02 06:26:42;;;;;;;0.93;0.90;;;6.60;99.90;;;;;;5023467;28;20049;-47
2023/04/02 06:29:23;;;;;;;0.90;0.90;;;6.70;99.90;;;;;;5020569;28;20049;-44
2023/04/02 06:31:59;;;;;;;2.15;0.80;;;6.70;99.90;;;;;;5020959;28;20470;-43
2023/04/02 06:34:29;;;;;;;0.98;0.80;;;6.80;99.90;;;;;;5006537;28;20337;-41
2023/04/02 06:37:32;;;;;;;0.80;0.80;;;6.80;99.90;;;;;;5022856;28;20575;-41
2023/04/02 06:40:32;;;;;;;1.70;1.05;;;6.80;99.90;;;;;;4992660;28;20045;-41
2023/04/02 06:43:22;;;;;;;2.17;0.90;;;6.90;99.90;;;;;;5003378;28;20045;-41
2023/04/02 06:46:01;;;;;;;1.00;1.00;;;6.90;99.90;;;;;;5011339;28;20064;-43
2023/04/02 06:48:47;;;;;;;1.33;1.30;;;6.90;99.90;;;;;;5013494;28;20061;-42
2023/04/02 06:51:19;;;;;;;0.82;0.82;;;7.00;99.90;;;;;;5010332;28;20442;-40
2023/04/02 06:53:49;;;;;;;1.40;1.35;;;7.00;99.90;;;;;;5024003;28;20049;-40
2023/04/02 06:56:43;;;;;;;0.77;0.77;;;7.10;99.90;;;;;;5011452;28;20061;-41
2023/04/02 06:59:15;;;;;;;0.85;0.85;;;7.10;99.90;;;;;;5009706;28;20042;-41
2023/04/02 07:01:55;;;;;;;2.17;1.13;;;7.10;99.90;;;;;;5027713;28;20045;-42
2023/04/02 07:04:25;;;;;;;1.75;0.73;;;7.20;99.90;;;;;;5023891;28;20057;-47
2023/04/02 07:06:54;;;;;;;1.63;1.10;;;7.20;99.90;;;;;;5014427;28;20053;-43
2023/04/02 07:09:25;;;;;;;1.13;0.73;;;7.10;99.90;;;;;;5008554;28;20049;-39
2023/04/02 07:11:56;;;;;;;1.75;1.30;;;7.20;99.90;;;;;;5027972;28;20053;-40
2023/04/02 07:14:24;;;;;;;1.00;0.90;;;7.20;99.90;;;;;;5021151;28;20053;-40
2023/04/02 07:16:52;;;;;;;1.17;0.60;;;7.30;99.90;;;;;;5011028;28;20486;-41
2023/04/02 07:19:21;;;;;;;0.70;0.60;;;7.30;99.90;;;;;;5026216;28;20429;-40
2023/04/02 07:21:53;;;;;;;1.08;0.90;;;7.40;99.90;;;;;;5024328;28;20088;-42
2023/04/02 07:24:23;;;;;;;0.93;0.93;;;7.40;99.90;;;;;;5009851;28;20061;-40
2023/04/02 07:26:50;;;;;;;0.68;0.68;;;7.30;99.90;;;;;;5025577;28;20056;-41
2023/04/02 07:29:18;;;;;;;11.68;1.20;;;7.30;99.90;;;;;;5028438;28;20056;-42
2023/04/02 07:31:46;;;;;;;0.80;0.80;;;7.40;99.90;;;;;;5022908;28;20497;-43
2023/04/02 07:34:18;;;;;;;1.35;0.85;;;7.40;99.90;;;;;;5020689;28;20052;-54
2023/04/02 07:36:45;;;;;;;;;;;7.40;99.90;;;;;;5026713;28;20369;-41
2023/04/02 07:39:14;;;;;;;3.38;1.00;;;7.40;99.90;;;;;;5024163;28;19952;-43
2023/04/02 07:41:59;;;;;;;2.80;1.92;;;7.60;99.90;;;;;;5022712;28;20441;-40
2023/04/02 07:44:27;;;;;;;3.45;0.98;;;7.70;99.90;;;;;;5026016;28;20064;-43
2023/04/02 07:46:55;;;;;;;1.42;1.35;;;7.70;99.90;;;;;;5025811;28;20057;-40
2023/04/02 07:49:22;;;;;;;1.00;1.00;;;7.80;99.90;;;;;;5027310;28;20469;-43
2023/04/02 07:51:51;;;;;;;0.80;0.80;;;7.90;99.90;;;;;;5025487;28;20689;-41
2023/04/02 07:54:18;;;;;;;0.85;0.65;;;7.90;99.90;;;;;;5025386;28;20053;-40
2023/04/02 07:56:47;;;;;;;0.90;0.60;;;8.00;99.90;;;;;;5024049;28;20053;-45
2023/04/02 07:59:14;;;;;;;0.93;0.80;;;7.90;99.90;;;;;;5022387;28;20045;-42
2023/04/02 08:01:42;;;;;;;1.45;0.65;;;8.00;99.90;;;;;;5009220;28;20174;-45
2023/04/02 08:04:17;;;;;;;1.35;0.80;;;8.00;99.90;;;;;;5024567;28;20080;-44
2023/04/02 08:06:46;;;;;;;2.30;0.95;;;8.10;99.90;;;;;;5025213;28;20061;-45
2023/04/02 08:09:15;;;;;;;6.30;2.00;;;8.20;99.90;;;;;;5006581;28;20053;-42
2023/04/02 08:11:42;;;;;;;1.20;1.00;;;8.30;99.90;;;;;;5026205;28;20046;-42
2023/04/02 08:14:10;;;;;;;0.95;0.90;;;8.40;99.90;;;;;;5026685;28;20049;-44
2023/04/02 08:16:49;;;;;;;0.90;0.90;;;8.20;99.90;;;;;;5027413;28;20058;-42
2023/04/02 08:19:18;;;;;;;2.65;0.82;;;8.30;99.90;;;;;;5024306;28;20049;-45
2023/04/02 08:21:49;;;;;;;1.55;1.40;;;8.30;99.90;;;;;;5025334;28;20053;-48
2023/04/02 08:24:20;;;;;;;1.70;1.08;;;8.20;99.90;;;;;;5030143;28;20053;-45
2023/04/02 08:26:50;;;;;;;1.92;0.93;;;8.20;99.90;;;;;;5024695;28;20107;-39
2023/04/02 08:29:18;;;;;;;3.88;1.10;;;8.20;99.90;;;;;;5028394;28;20057;-39
2023/04/02 08:31:46;;;;;;;3.83;0.95;;;8.20;99.90;;;;;;5024432;28;20034;-40
2023/04/02 08:34:13;;;;;;;0.70;0.70;;;8.40;99.90;;;;;;5026588;28;20067;-46
2023/04/02 08:36:44;;;;;;;0.88;0.70;;;8.70;99.90;;;;;;5023776;28;20045;-39
2023/04/02 08:39:14;;;;;;;3.05;0.93;;;9.00;99.90;;;;;;5027161;28;20048;-40
2023/04/02 08:41:55;;;;;;;0.98;0.88;;;9.10;99.90;;;;;;5024827;28;20045;-43
2023/04/02 08:44:44;;;;;;;1.45;1.20;;;9.10;99.90;;;;;;5030687;28;20061;-43
2023/04/02 08:47:13;;;;;;;1.15;1.02;;;9.40;99.90;;;;;;5025119;28;20048;-39
2023/04/02 08:49:43;;;;;;;1.20;0.95;;;9.50;99.90;;;;;;5022612;28;20049;-40
2023/04/02 08:52:25;;;;;;;0.60;0.60;;;9.20;99.90;;;;;;5026195;28;20053;-39
2023/04/02 08:54:55;;;;;;;1.40;1.05;;;9.00;99.90;;;;;;5022377;28;20473;-39
2023/04/02 08:57:44;;;;;;;0.82;0.82;;;9.10;99.90;;;;;;5030116;28;20052;-48
2023/04/02 09:00:19;;;;;;;1.30;1.15;;;9.00;99.90;;;;;;5005570;28;20383;-43
2023/04/02 09:02:55;;;;;;;0.80;0.80;;;8.80;99.90;;;;;;5024952;28;20057;-41
2023/04/02 09:05:27;;;;;;;1.75;0.98;;;8.80;99.90;;;;;;5016820;28;20509;-40
2023/04/02 09:07:58;;;;;;;0.93;0.93;;;8.80;99.90;;;;;;5010139;28;20053;-39
2023/04/02 09:10:41;;;;;;;1.73;1.45;;;8.90;99.90;;;;;;5014214;28;20049;-40
2023/04/02 09:13:31;;;;;;;1.33;1.23;;;9.10;99.90;;;;;;4995950;28;20053;-40
2023/04/02 09:16:08;;;;;;;0.93;0.80;;;8.80;99.90;;;;;;5025148;28;20041;-39
2023/04/02 09:18:37;;;;;;;2.20;1.70;;;8.80;99.90;;;;;;5019362;28;20049;-38
2023/04/02 09:21:35;;;;;;;1.00;0.85;;;8.70;99.90;;;;;;5011819;28;20056;-39
2023/04/02 09:24:03;;;;;;;1.17;1.00;;;8.60;99.90;;;;;;5017213;28;20057;-42
2023/04/02 09:26:33;;;;;;;1.75;1.50;;;8.60;99.90;;;;;;5019850;28;20061;-40
2023/04/02 09:29:24;;;;;;;1.40;1.30;;;8.60;99.90;;;;;;5019722;28;20057;-40
2023/04/02 09:32:11;;;;;;;1.30;1.17;;;8.70;99.90;;;;;;5018089;28;20540;-40
2023/04/02 09:34:39;;;;;;;1.13;1.02;;;8.70;99.90;;;;;;5012253;28;20046;-41
2023/04/02 09:37:15;;;;;;;3.83;0.90;;;8.70;99.90;;;;;;5018148;28;20046;-42
2023/04/02 09:39:42;;;;;;;0.80;0.80;;;8.70;99.90;;;;;;5016236;28;20049;-39
2023/04/02 09:42:32;;;;;;;4.55;0.82;;;9.00;99.90;;;;;;5017554;28;20054;-44
2023/04/02 09:45:21;;;;;;;1.00;0.90;;;8.90;99.90;;;;;;5020239;28;20504;-41
2023/04/02 09:47:51;;;;;;;0.80;0.70;;;9.10;99.90;;;;;;5014945;28;20064;-38
2023/04/02 09:50:26;;;;;;;4.88;1.17;;;9.20;99.90;;;;;;5022447;28;20041;-40
2023/04/02 09:52:53;;;;;;;0.93;0.93;;;9.20;99.90;;;;;;5020546;28;20048;-40
2023/04/02 09:55:29;;;;;;;1.67;1.05;;;9.20;99.90;;;;;;5023896;28;20409;-39
2023/04/02 09:58:14;;;;;;;0.90;0.90;;;9.20;99.90;;;;;;5020881;28;20540;-42
2023/04/02 10:00:50;;;;;;;0.63;0.63;;;9.20;99.90;;;;;;5022999;28;20049;-38
2023/04/02 10:03:30;;;;;;;1.65;0.63;;;9.20;99.90;;;;;;5023490;28;20072;-40
2023/04/02 10:06:06;;;;;;;1.15;0.60;;;9.10;99.90;;;;;;5019969;28;20057;-39
2023/04/02 10:08:35;;;;;;;2.90;0.60;;;9.30;99.90;;;;;;5020572;28;20525;-43
2023/04/02 10:11:12;;;;;;;0.60;0.60;;;9.20;99.90;;;;;;5005844;28;20810;-45
2023/04/02 10:13:51;;;;;;;0.75;0.68;;;9.20;99.90;;;;;;5018371;28;20429;-41
2023/04/02 10:16:26;;;;;;;0.90;0.90;;;9.10;99.90;;;;;;5019683;28;20502;-46
2023/04/02 10:18:58;;;;;;;1.70;0.55;;;9.10;99.90;;;;;;5016272;28;20285;-39
2023/04/02 10:21:30;;;;;;;2.35;0.85;;;9.10;99.90;;;;;;5019354;28;20069;-40
2023/04/02 10:23:58;;;;;;;1.10;1.00;;;9.10;99.90;;;;;;5019311;28;20053;-43
2023/04/02 10:26:51;;;;;;;0.93;0.80;;;9.20;99.90;;;;;;5019341;28;20132;-40
2023/04/02 10:29:54;;;;;;;0.95;0.88;;;9.30;99.90;;;;;;5018391;28;20521;-40
2023/04/02 10:32:34;;;;;;;3.05;0.85;;;9.50;99.90;;;;;;4985306;28;20053;-39
2023/04/02 10:35:29;;;;;;;1.67;1.08;;;9.50;99.90;;;;;;5008437;28;20060;-41
2023/04/02 10:38:31;;;;;;;3.28;2.33;;;9.60;99.90;;;;;;5013315;28;20057;-42
2023/04/02 10:41:25;;;;;;;0.90;0.73;;;9.60;99.90;;;;;;5017328;28;20061;-44
2023/04/02 10:44:05;;;;;;;2.30;1.08;;;9.60;99.90;;;;;;5014381;28;20076;-42
2023/04/02 10:47:00;;;;;;;0.82;0.70;;;9.40;99.90;;;;;;5012763;28;20251;-40
2023/04/02 10:50:00;;;;;;;1.13;1.10;;;9.40;99.90;;;;;;5016409;28;20053;-43
2023/04/02 10:52:51;;;;;;;1.90;0.80;;;9.20;99.90;;;;;;4993495;28;20060;-45
2023/04/02 10:55:28;;;;;;;0.93;0.90;;;9.20;99.90;;;;;;5017765;28;20234;-51
2023/04/02 10:58:02;;;;;;;1.15;0.70;;;9.10;99.90;;;;;;5018113;28;20423;-44
2023/04/02 11:00:38;;;;;;;1.10;1.10;;;9.20;99.90;;;;;;5012758;28;20207;-41
2023/04/02 11:03:40;;;;;;;1.02;0.82;;;9.30;99.90;;;;;;5016187;28;20049;-41
2023/04/02 11:06:20;;;;;;;1.15;1.05;;;9.20;99.90;;;;;;5013425;28;20060;-41
2023/04/02 11:08:51;;;;;;;1.27;0.85;;;9.30;99.90;;;;;;5016162;28;20045;-43
2023/04/02 11:11:38;;;;;;;0.93;0.93;;;9.40;99.90;;;;;;5015495;28;20045;-41
2023/04/02 11:14:18;;;;;;;2.55;1.10;;;9.70;99.90;;;;;;5014535;28;20049;-44
2023/04/02 11:16:48;;;;;;;1.38;1.10;;;9.90;99.90;;;;;;5016416;28;20049;-46
2023/04/02 11:19:16;;;;;;;0.75;0.75;;;10.20;99.90;;;;;;4997387;28;20469;-43
2023/04/02 11:21:47;;;;;;;0.73;0.70;;;10.20;99.90;;;;;;5016093;28;20068;-40
2023/04/02 11:24:35;;;;;;;1.05;0.80;;;10.20;99.90;;;;;;5015045;28;20244;-45
2023/04/02 11:27:28;;;;;;;0.80;0.80;;;10.10;99.90;;;;;;5017542;28;20060;-42
2023/04/02 11:30:22;;;;;;;1.40;0.75;;;10.10;99.90;;;;;;5016416;28;20049;-52
2023/04/02 11:32:50;;;;;;;1.30;0.80;;;10.00;99.90;;;;;;5008740;28;20053;-44
2023/04/02 11:35:30;;;;;;;1.25;1.15;;;10.10;99.90;;;;;;5015476;28;20726;-55
2023/04/02 11:38:21;;;;;;;1.10;1.00;;;10.30;99.90;;;;;;5012049;28;20045;-49
2023/04/02 11:40:53;;;;;;;0.90;0.90;;;10.10;99.90;;;;;;5006242;28;20053;-45
2023/04/02 11:43:34;;;;;;;0.70;0.70;;;10.10;99.90;;;;;;5016889;28;20049;-48
2023/04/02 11:46:35;;;;;;;2.05;0.80;;;10.40;99.90;;;;;;5013444;28;20053;-49
2023/04/02 11:49:35;;;;;;;0.90;0.90;;;10.20;99.90;;;;;;5015586;28;20065;-50
2023/04/02 11:52:17;;;;;;;0.80;0.80;;;9.90;99.90;;;;;;5017043;28;20755;-50
2023/04/02 11:54:45;;;;;;;;;;;9.70;99.90;;;;;;5017791;28;20072;-45
2023/04/02 11:57:39;;;;;;;0.70;0.70;;;9.30;99.90;;;;;;5019678;28;19979;-46
2023/04/02 12:00:26;;;;;;;1.52;0.80;;;9.10;99.90;;;;;;5018752;28;20049;-48
2023/04/02 12:03:27;;;;;;;1.02;0.98;;;8.80;99.90;;;;;;5019515;28;20076;-50
2023/04/02 12:06:07;;;;;;;0.77;0.77;;;8.60;99.90;;;;;;5015893;28;20050;-45
2023/04/02 12:08:46;;;;;;;1.02;0.95;;;8.60;99.90;;;;;;5014121;28;20093;-44
2023/04/02 12:11:36;;;;;;;1.50;1.45;;;8.60;99.90;;;;;;5014386;28;20056;-47
2023/04/02 12:14:30;;;;;;;0.82;0.82;;;8.90;99.90;;;;;;5024650;28;20577;-52
2023/04/02 12:16:58;;;;;;;1.05;1.00;;;9.10;99.90;;;;;;5011266;28;20068;-46
2023/04/02 12:19:29;;;;;;;1.38;1.30;;;9.30;99.90;;;;;;5018910;28;20643;-50
2023/04/02 12:21:58;;;;;;;0.73;0.73;;;9.40;99.90;;;;;;5015725;28;20173;-46
2023/04/02 12:24:30;;;;;;;1.77;1.23;;;9.50;99.90;;;;;;5016841;28;20057;-50
2023/04/02 12:27:13;;;;;;;0.95;0.95;;;9.40;99.90;;;;;;5017055;28;20065;-46
2023/04/02 12:29:42;;;;;;;0.77;0.77;;;9.30;99.90;;;;;;5019527;28;20050;-47
2023/04/02 12:32:26;;;;;;;1.13;1.13;;;9.30;99.90;;;;;;5005208;28;20076;-52
2023/04/02 12:34:57;;;;;;;0.90;0.90;;;9.20;99.90;;;;;;5014851;28;20417;-47
2023/04/02 12:37:27;;;;;;;1.00;1.00;;;9.20;99.90;;;;;;5022327;28;20064;-47
2023/04/02 12:39:57;;;;;;;0.93;0.90;;;9.00;99.90;;;;;;5019416;28;20049;-47
2023/04/02 12:42:27;;;;;;;0.85;0.85;;;8.70;99.90;;;;;;5023202;28;20528;-48
2023/04/02 12:44:54;;;;;;;1.05;1.05;;;8.50;99.90;;;;;;5021108;28;20072;-47
2023/04/02 12:47:22;;;;;;;0.70;0.70;;;8.50;99.90;;;;;;5022105;28;20049;-49
2023/04/02 12:49:51;;;;;;;1.10;1.10;;;8.50;99.90;;;;;;5020035;28;20167;-52
2023/04/02 12:52:21;;;;;;;1.02;1.00;;;8.60;99.90;;;;;;5021745;28;20385;-48
2023/04/02 12:54:49;;;;;;;1.98;1.45;;;8.70;99.90;;;;;;5020518;28;20041;-45
2023/04/02 12:57:32;;;;;;;2.33;2.13;;;8.90;99.90;;;;;;5021253;28;20057;-48
2023/04/02 13:00:20;;;;;;;1.27;1.17;;;9.10;99.90;;;;;;5020706;28;20053;-45
2023/04/02 13:02:50;;;;;;;1.55;1.45;;;9.10;99.90;;;;;;5018309;28;20052;-48
2023/04/02 13:05:41;;;;;;;1.30;1.20;;;9.00;99.90;;;;;;5022940;28;20501;-49
2023/04/02 13:08:27;;;;;;;1.33;1.23;;;8.90;99.90;;;;;;4948066;28;20042;-48
2023/04/02 13:10:58;;;;;;;1.05;1.00;;;8.80;99.90;;;;;;5012931;28;20068;-51
2023/04/02 13:13:35;;;;;;;1.58;1.48;;;9.00;99.90;;;;;;5013217;28;20052;-48
2023/04/02 13:16:18;;;;;;;1.00;1.00;;;8.80;99.90;;;;;;5018695;28;20529;-51
2023/04/02 13:18:48;;;;;;;1.52;1.00;;;8.70;99.90;;;;;;5019707;28;20556;-49
2023/04/02 13:21:15;;;;;;;0.77;0.77;;;8.50;99.90;;;;;;5019987;28;20046;-49
2023/04/02 13:23:44;;;;;;;1.70;1.10;;;8.40;99.90;;;;;;5019085;28;20454;-51
2023/04/02 13:26:12;;;;;;;1.80;1.00;;;8.50;99.90;;;;;;5019956;28;20187;-48
2023/04/02 13:28:40;;;;;;;0.93;0.90;;;8.70;99.90;;;;;;5022226;28;20052;-49
2023/04/02 13:31:17;;;;;;;1.00;0.98;;;8.80;99.90;;;;;;5016919;28;20053;-49
2023/04/02 13:33:45;;;;;;;0.98;0.98;;;8.80;99.90;;;;;;5016512;28;20042;-46
2023/04/02 13:36:13;;;;;;;1.40;1.30;;;8.90;99.90;;;;;;5018682;28;20418;-50
2023/04/02 13:38:41;;;;;;;0.93;0.93;;;8.60;99.90;;;;;;5014520;28;20561;-51
2023/04/02 13:41:20;;;;;;;0.80;0.80;;;8.40;99.90;;;;;;5018725;28;20053;-48
2023/04/02 13:43:59;;;;;;;0.90;0.90;;;8.50;99.90;;;;;;5020245;28;20053;-47
2023/04/02 13:46:33;;;;;;;1.17;0.70;;;8.70;99.90;;;;;;5019179;28;20056;-47
2023/04/02 13:49:01;;;;;;;0.80;0.80;;;8.70;99.90;;;;;;5018215;28;20049;-46
2023/04/02 13:51:36;;;;;;;3.70;0.80;;;8.60;99.90;;;;;;5017835;28;20045;-45
2023/04/02 13:54:12;;;;;;;1.05;0.95;;;8.70;99.90;;;;;;5014744;28;20054;-48